Time;durP1;ratioP1;P1;durP2;ratioP2;P2;SDS_P1;SDS_P2;PMS_P1;PMS_P2;Temp;Humidity;BMP_temperature;BMP_pressure;BME280_temperature;BME280_humidity;BME280_pressure;Samples;Min_cycle;Max_cycle;Signal;HPM_P1;HPM_P2
2021/07/21 00:01:48;;;;;;;8.13;4.65;;;14.00;99.90;;;;;;4998887;28;20041;-84
2021/07/21 00:04:14;;;;;;;7.50;4.93;;;13.90;99.90;;;;;;4988337;28;20121;-84
2021/07/21 00:06:40;;;;;;;7.25;4.88;;;13.80;99.90;;;;;;4998520;28;20030;-84
2021/07/21 00:09:07;;;;;;;10.55;5.57;;;13.70;99.90;;;;;;4974800;28;20515;-84
2021/07/21 00:14:20;;;;;;;7.78;4.93;;;13.60;99.90;;;;;;4996722;28;20065;-84
2021/07/21 00:16:54;;;;;;;10.93;5.00;;;13.50;99.90;;;;;;4991409;28;20097;-83
2021/07/21 00:22:05;;;;;;;8.75;5.35;;;13.40;99.90;;;;;;5010478;28;20030;-83
2021/07/21 00:24:30;;;;;;;12.13;5.10;;;13.40;99.90;;;;;;5010776;28;20034;-83
2021/07/21 00:26:56;;;;;;;7.10;5.38;;;13.40;99.90;;;;;;4991684;28;20038;-84
2021/07/21 00:29:22;;;;;;;8.18;5.03;;;13.40;99.90;;;;;;4958285;28;20137;-83
2021/07/21 00:31:48;;;;;;;9.27;4.93;;;13.40;99.90;;;;;;4990355;28;20037;-83
2021/07/21 00:34:14;;;;;;;7.32;4.85;;;13.30;99.90;;;;;;4978543;28;20087;-83
2021/07/21 00:36:39;;;;;;;7.70;5.00;;;13.30;99.90;;;;;;4993999;28;20044;-84
2021/07/21 00:39:05;;;;;;;7.45;4.88;;;13.20;99.90;;;;;;4993308;28;20033;-83
2021/07/21 00:41:32;;;;;;;8.25;5.57;;;13.20;99.90;;;;;;5009517;28;20034;-84
2021/07/21 00:43:58;;;;;;;12.48;5.00;;;13.10;99.90;;;;;;4982627;28;20037;-84
2021/07/21 00:46:24;;;;;;;11.00;5.28;;;13.10;99.90;;;;;;5009311;28;20488;-83
2021/07/21 00:48:52;;;;;;;9.15;5.38;;;13.10;99.90;;;;;;4993665;28;20030;-84
2021/07/21 00:51:19;;;;;;;8.18;5.30;;;13.10;99.90;;;;;;5009594;28;20103;-84
2021/07/21 00:53:46;;;;;;;9.18;5.50;;;13.00;99.90;;;;;;4994111;28;20033;-83
2021/07/21 00:56:15;;;;;;;10.05;6.00;;;13.10;99.90;;;;;;4994717;28;20040;-84
2021/07/21 00:58:42;;;;;;;9.20;5.05;;;13.00;99.90;;;;;;4991165;28;20101;-84
2021/07/21 01:01:07;;;;;;;9.80;5.25;;;13.00;99.90;;;;;;4986814;28;20707;-83
2021/07/21 01:03:33;;;;;;;9.40;5.68;;;13.00;99.90;;;;;;4989246;28;20030;-84
2021/07/21 01:06:00;;;;;;;8.40;5.20;;;13.00;99.90;;;;;;4974395;28;20451;-84
2021/07/21 01:08:27;;;;;;;8.50;5.57;;;12.90;99.90;;;;;;4990547;28;20042;-83
2021/07/21 01:11:34;;;;;;;7.05;4.90;;;13.00;99.90;;;;;;5010870;28;20030;-84
2021/07/21 01:14:08;;;;;;;7.55;4.78;;;13.00;99.90;;;;;;4989128;28;20035;-83
2021/07/21 01:16:47;;;;;;;8.70;4.65;;;12.90;99.90;;;;;;5026410;28;20116;-83
2021/07/21 01:19:24;;;;;;;6.40;4.82;;;12.90;99.90;;;;;;5009197;28;20121;-84
2021/07/21 01:22:02;;;;;;;9.55;5.03;;;12.90;99.90;;;;;;5009168;28;20028;-83
2021/07/21 01:25:08;;;;;;;7.85;4.85;;;12.90;99.90;;;;;;5008066;28;20113;-83
2021/07/21 01:28:01;;;;;;;8.30;4.85;;;12.80;99.90;;;;;;5005415;28;20045;-83
2021/07/21 01:30:30;;;;;;;9.10;5.03;;;12.80;99.90;;;;;;5013006;28;20045;-84
2021/07/21 01:33:03;;;;;;;7.28;5.18;;;12.70;99.90;;;;;;5013698;28;20066;-83
2021/07/21 01:35:37;;;;;;;8.75;4.95;;;12.70;99.90;;;;;;4997287;28;20129;-83
2021/07/21 01:38:18;;;;;;;10.43;4.57;;;12.70;99.90;;;;;;4997263;28;20034;-84
2021/07/21 01:40:53;;;;;;;9.63;5.20;;;12.70;99.90;;;;;;5013098;28;20129;-83
2021/07/21 01:43:27;;;;;;;7.90;4.90;;;12.70;99.90;;;;;;5030070;28;20180;-84
2021/07/21 01:45:55;;;;;;;7.40;4.97;;;12.70;99.90;;;;;;4993836;28;20440;-84
2021/07/21 01:48:23;;;;;;;8.85;4.95;;;12.60;99.90;;;;;;4983869;28;20698;-83
2021/07/21 01:50:55;;;;;;;6.20;4.82;;;12.60;99.90;;;;;;5008998;28;20093;-83
2021/07/21 01:53:22;;;;;;;8.45;4.97;;;12.50;99.90;;;;;;5009796;28;20026;-83
2021/07/21 01:55:49;;;;;;;8.18;4.78;;;12.50;99.90;;;;;;5010340;28;20492;-84
2021/07/21 01:58:17;;;;;;;9.93;4.85;;;12.40;99.90;;;;;;5010115;28;20045;-84
2021/07/21 02:01:06;;;;;;;6.93;4.95;;;12.40;99.90;;;;;;5006790;28;20092;-83
2021/07/21 02:03:37;;;;;;;9.70;5.43;;;12.30;99.90;;;;;;5009936;28;20045;-84
2021/07/21 02:06:07;;;;;;;9.20;5.05;;;12.20;99.90;;;;;;4993486;28;20050;-84
2021/07/21 02:08:35;;;;;;;8.18;4.97;;;12.20;99.90;;;;;;5025837;28;20037;-83
2021/07/21 02:11:17;;;;;;;8.20;5.00;;;12.10;99.90;;;;;;5006860;28;20042;-83
2021/07/21 02:13:43;;;;;;;8.73;4.60;;;12.10;99.90;;;;;;4996163;28;20038;-83
2021/07/21 02:16:27;;;;;;;7.10;4.63;;;12.10;99.90;;;;;;5012723;28;20065;-83
2021/07/21 02:18:55;;;;;;;7.03;4.80;;;12.10;99.90;;;;;;5012356;28;20060;-83
2021/07/21 02:21:25;;;;;;;6.07;4.55;;;12.10;99.90;;;;;;4997802;28;20119;-83
2021/07/21 02:23:54;;;;;;;7.60;4.65;;;12.00;99.90;;;;;;5028761;28;20034;-83
2021/07/21 02:26:55;;;;;;;6.28;4.45;;;12.00;99.90;;;;;;5002844;28;20022;-84
2021/07/21 02:29:22;;;;;;;7.25;5.03;;;12.00;99.90;;;;;;5008677;28;20053;-83
2021/07/21 02:32:07;;;;;;;6.60;4.47;;;11.90;99.90;;;;;;4992393;28;20512;-84
2021/07/21 02:34:34;;;;;;;11.40;5.13;;;11.90;99.90;;;;;;5009745;28;20036;-83
2021/07/21 02:37:03;;;;;;;8.65;5.10;;;11.90;99.90;;;;;;4995483;28;20428;-83
2021/07/21 02:39:32;;;;;;;8.07;5.00;;;11.90;99.90;;;;;;4996042;28;20125;-83
2021/07/21 02:41:59;;;;;;;6.45;4.65;;;11.80;99.90;;;;;;4995433;28;20030;-84
2021/07/21 02:44:34;;;;;;;;;;;11.80;99.90;;;;;;4990928;28;20034;-83
2021/07/21 02:47:01;;;;;;;6.80;4.45;;;11.80;99.90;;;;;;5012318;28;19913;-84
2021/07/21 02:49:27;;;;;;;9.52;5.15;;;11.80;99.90;;;;;;4979385;28;20042;-84
2021/07/21 02:52:09;;;;;;;8.30;5.07;;;11.80;99.90;;;;;;4980152;28;20061;-84
2021/07/21 02:54:54;;;;;;;8.43;4.75;;;11.70;99.90;;;;;;4997766;28;20114;-83
2021/07/21 02:57:27;;;;;;;11.68;5.47;;;11.70;99.90;;;;;;4984366;28;20204;-84
2021/07/21 02:59:56;;;;;;;7.65;5.30;;;11.60;99.90;;;;;;4995723;28;20429;-83
2021/07/21 03:02:26;;;;;;;9.07;5.50;;;11.60;99.90;;;;;;4988804;28;20034;-84
2021/07/21 03:04:57;;;;;;;7.28;5.25;;;11.60;99.90;;;;;;5003983;28;20060;-83
2021/07/21 03:07:33;;;;;;;8.57;5.35;;;11.60;99.90;;;;;;5011791;28;20053;-83
2021/07/21 03:10:05;;;;;;;7.40;5.22;;;11.60;99.90;;;;;;5000856;28;20041;-83
2021/07/21 03:12:39;;;;;;;8.60;5.72;;;11.70;99.90;;;;;;4991564;28;20524;-84
2021/07/21 03:15:33;;;;;;;8.17;5.03;;;11.70;99.90;;;;;;5006440;28;20501;-83
2021/07/21 03:18:03;;;;;;;7.10;4.97;;;11.70;99.90;;;;;;5011579;28;20296;-84
2021/07/21 03:20:29;;;;;;;6.30;4.38;;;11.70;99.90;;;;;;4992907;28;20121;-83
2021/07/21 03:23:09;;;;;;;7.18;4.90;;;11.70;99.90;;;;;;4993695;28;20027;-83
2021/07/21 03:25:38;;;;;;;6.70;4.65;;;11.70;99.90;;;;;;4997221;28;20045;-83
2021/07/21 03:28:05;;;;;;;8.30;4.80;;;11.70;99.90;;;;;;5028004;28;20041;-83
2021/07/21 03:30:44;;;;;;;8.10;5.22;;;11.60;99.90;;;;;;5010349;28;20125;-83
2021/07/21 03:33:15;;;;;;;8.77;4.55;;;11.60;99.90;;;;;;5008293;28;20038;-84
2021/07/21 03:35:48;;;;;;;8.75;5.35;;;11.60;99.90;;;;;;4995910;28;21097;-83
2021/07/21 03:38:18;;;;;;;7.25;4.25;;;11.60;99.90;;;;;;5011164;28;20034;-83
2021/07/21 03:40:56;;;;;;;11.27;5.25;;;11.50;99.90;;;;;;5007447;28;20031;-83
2021/07/21 03:43:29;;;;;;;8.85;4.47;;;11.50;99.90;;;;;;5007116;28;20041;-83
2021/07/21 03:46:02;;;;;;;9.13;5.05;;;11.50;99.90;;;;;;4976486;28;20034;-83
2021/07/21 03:48:31;;;;;;;8.32;4.97;;;11.50;99.90;;;;;;4996690;28;20033;-83
2021/07/21 03:51:23;;;;;;;11.13;5.10;;;11.40;99.90;;;;;;4995755;28;20042;-83
2021/07/21 03:54:28;;;;;;;6.85;4.75;;;11.40;99.90;;;;;;4970616;28;20031;-82
2021/07/21 03:57:18;;;;;;;8.30;5.40;;;11.40;99.90;;;;;;4965272;28;20468;-83
2021/07/21 03:59:45;;;;;;;7.25;5.00;;;11.30;99.90;;;;;;4979703;28;20129;-83
2021/07/21 04:02:13;;;;;;;7.43;4.68;;;11.30;99.90;;;;;;5010146;28;20030;-83
2021/07/21 04:04:43;;;;;;;8.55;5.20;;;11.30;99.90;;;;;;5010817;28;20050;-83
2021/07/21 04:07:14;;;;;;;9.27;5.25;;;11.30;99.90;;;;;;5010859;28;20132;-83
2021/07/21 04:09:51;;;;;;;8.77;5.20;;;11.40;99.90;;;;;;5006064;28;20093;-83
2021/07/21 04:12:20;;;;;;;8.00;5.40;;;11.40;99.90;;;;;;4990566;28;20289;-83
2021/07/21 04:14:57;;;;;;;8.20;5.45;;;11.40;99.90;;;;;;4994091;28;20088;-83
2021/07/21 04:18:00;;;;;;;9.23;5.35;;;11.50;99.90;;;;;;4990805;28;20033;-83
2021/07/21 04:20:28;;;;;;;10.82;5.15;;;11.50;99.90;;;;;;4993537;28;20034;-83
2021/07/21 04:22:57;;;;;;;7.93;5.13;;;11.50;99.90;;;;;;4978515;28;20515;-83
2021/07/21 04:25:24;;;;;;;7.90;4.65;;;11.60;99.90;;;;;;4978164;28;20064;-83
2021/07/21 04:27:59;;;;;;;8.23;4.70;;;11.60;99.90;;;;;;4995488;28;20033;-83
2021/07/21 04:30:32;;;;;;;7.05;4.97;;;11.70;99.90;;;;;;5009236;28;20033;-84
2021/07/21 04:33:00;;;;;;;9.05;4.90;;;11.80;99.90;;;;;;4991061;28;20038;-83
2021/07/21 04:35:29;;;;;;;7.70;4.53;;;11.90;99.90;;;;;;4990677;28;20026;-84
2021/07/21 04:38:03;;;;;;;7.38;4.82;;;12.00;99.90;;;;;;5010251;28;20030;-82
2021/07/21 04:40:46;;;;;;;9.43;5.28;;;12.00;99.90;;;;;;4994866;28;20496;-83
2021/07/21 04:43:31;;;;;;;10.63;5.00;;;12.10;99.90;;;;;;5007665;28;20041;-83
2021/07/21 04:45:59;;;;;;;7.93;5.05;;;12.20;99.90;;;;;;4996650;28;20030;-83
2021/07/21 04:48:26;;;;;;;9.32;5.32;;;12.30;99.90;;;;;;5010612;28;20045;-83
2021/07/21 04:50:56;;;;;;;6.70;3.95;;;12.40;99.90;;;;;;5009107;28;20092;-83
2021/07/21 04:53:22;;;;;;;7.63;5.10;;;12.50;99.90;;;;;;5002289;28;20033;-83
2021/07/21 04:55:51;;;;;;;10.88;5.38;;;12.60;99.90;;;;;;4994096;28;20492;-83
2021/07/21 04:58:17;;;;;;;8.43;4.88;;;12.70;99.90;;;;;;4993732;28;20030;-84
2021/07/21 05:00:50;;;;;;;8.25;5.03;;;12.70;99.90;;;;;;4992623;28;20150;-83
2021/07/21 05:03:23;;;;;;;10.93;5.03;;;12.80;99.90;;;;;;5006299;28;20037;-83
2021/07/21 05:05:53;;;;;;;8.88;4.60;;;12.90;99.90;;;;;;5006229;28;20053;-83
2021/07/21 05:08:24;;;;;;;8.00;4.55;;;13.00;99.90;;;;;;5011029;28;20038;-83
2021/07/21 05:11:16;;;;;;;6.43;4.63;;;13.10;99.90;;;;;;4986318;28;20029;-83
2021/07/21 05:13:41;;;;;;;6.95;4.13;;;13.20;99.90;;;;;;5010484;28;20030;-83
2021/07/21 05:16:11;;;;;;;6.70;4.38;;;13.20;99.90;;;;;;4997883;28;20389;-83
2021/07/21 05:18:38;;;;;;;5.93;3.88;;;13.30;99.90;;;;;;5011823;28;20372;-83
2021/07/21 05:21:09;;;;;;;5.88;4.18;;;13.40;99.90;;;;;;5008669;28;20033;-83
2021/07/21 05:23:37;;;;;;;6.53;4.32;;;13.40;99.90;;;;;;5012580;28;20030;-83
2021/07/21 05:26:05;;;;;;;7.10;4.88;;;13.40;99.90;;;;;;5010633;28;20091;-83
2021/07/21 05:28:49;;;;;;;6.67;4.73;;;13.40;99.90;;;;;;4983093;28;20459;-83
2021/07/21 05:31:33;;;;;;;6.32;4.60;;;13.40;99.90;;;;;;5006738;28;20049;-83
2021/07/21 05:34:27;;;;;;;7.28;4.57;;;13.50;99.90;;;;;;5005152;28;20034;-83
2021/07/21 05:37:12;;;;;;;6.57;4.35;;;13.60;99.90;;;;;;5024277;28;20044;-83
2021/07/21 05:39:49;;;;;;;8.52;4.78;;;13.80;99.90;;;;;;4999416;28;20664;-83
2021/07/21 05:42:17;;;;;;;5.97;4.32;;;14.10;99.90;;;;;;5009866;28;20037;-83
2021/07/21 05:44:43;;;;;;;8.88;4.25;;;14.40;99.90;;;;;;5005732;28;20026;-83
2021/07/21 05:47:10;;;;;;;7.60;4.00;;;14.80;99.90;;;;;;5006124;28;20582;-83
2021/07/21 05:49:36;;;;;;;5.95;4.00;;;15.10;99.90;;;;;;5021094;28;20113;-83
2021/07/21 05:52:10;;;;;;;6.53;3.97;;;15.30;99.90;;;;;;4983317;28;20125;-83
2021/07/21 05:54:41;;;;;;;6.07;4.40;;;15.50;99.90;;;;;;4980763;28;20103;-83
2021/07/21 05:57:09;;;;;;;7.40;4.40;;;15.60;99.90;;;;;;5029390;28;20087;-83
2021/07/21 05:59:44;;;;;;;6.80;5.03;;;15.60;99.90;;;;;;4984904;28;20042;-83
2021/07/21 06:02:10;;;;;;;7.05;4.43;;;15.70;99.90;;;;;;5007603;28;20412;-83
2021/07/21 06:04:37;;;;;;;6.93;5.00;;;15.70;99.90;;;;;;4990528;28;20034;-83
2021/07/21 06:07:21;;;;;;;9.38;5.43;;;15.80;99.90;;;;;;5012945;28;20455;-83
2021/07/21 06:10:16;;;;;;;8.75;5.50;;;16.00;99.90;;;;;;4982281;28;20030;-83
2021/07/21 06:12:51;;;;;;;8.02;5.15;;;16.20;99.90;;;;;;5000315;28;20079;-83
2021/07/21 06:15:19;;;;;;;7.95;4.88;;;16.30;99.90;;;;;;5014002;28;20070;-83
2021/07/21 06:17:44;;;;;;;7.40;5.22;;;16.40;99.90;;;;;;5013932;28;20065;-83
2021/07/21 06:20:11;;;;;;;10.05;5.28;;;16.50;99.90;;;;;;4979759;28;20038;-83
2021/07/21 06:22:47;;;;;;;6.13;4.35;;;16.60;99.90;;;;;;4997822;28;20067;-83
2021/07/21 06:25:17;;;;;;;12.60;5.13;;;16.70;99.90;;;;;;4996468;28;20037;-83
2021/07/21 06:28:02;;;;;;;6.22;4.55;;;16.80;99.90;;;;;;5012914;28;20408;-84
2021/07/21 06:30:28;;;;;;;7.30;5.03;;;16.90;99.90;;;;;;4991582;28;20500;-84
2021/07/21 06:32:54;;;;;;;6.95;4.40;;;16.90;99.90;;;;;;4995727;28;20390;-84
2021/07/21 06:35:21;;;;;;;7.32;5.05;;;17.10;99.90;;;;;;4996086;28;20117;-83
2021/07/21 06:37:48;;;;;;;7.35;4.97;;;17.20;99.90;;;;;;5012522;28;20038;-84
2021/07/21 06:40:14;;;;;;;8.68;4.85;;;17.30;99.90;;;;;;5010382;28;20485;-83
2021/07/21 06:42:40;;;;;;;5.53;4.45;;;17.60;99.90;;;;;;4998793;28;20100;-83
2021/07/21 06:45:06;;;;;;;6.88;4.45;;;17.60;99.90;;;;;;4995516;28;20512;-84
2021/07/21 06:47:38;;;;;;;7.20;4.47;;;17.80;99.90;;;;;;4996244;28;20036;-83
2021/07/21 06:50:23;;;;;;;6.25;4.38;;;18.00;99.90;;;;;;4991437;28;20481;-83
2021/07/21 06:52:49;;;;;;;7.50;4.50;;;18.60;99.90;;;;;;5003157;28;20091;-83
2021/07/21 06:55:35;;;;;;;7.18;4.57;;;19.20;99.90;;;;;;5006695;28;20040;-84
2021/07/21 06:58:06;;;;;;;7.53;3.95;;;19.90;99.90;;;;;;4993172;28;20034;-84
2021/07/21 07:00:47;;;;;;;7.30;4.20;;;20.40;99.90;;;;;;4987989;28;20049;-83
2021/07/21 07:03:31;;;;;;;6.30;4.03;;;20.90;99.90;;;;;;5012110;28;20570;-84
2021/07/21 07:06:06;;;;;;;6.47;3.20;;;21.50;99.90;;;;;;4982682;28;20038;-84
2021/07/21 07:09:04;;;;;;;5.82;4.25;;;22.00;99.90;;;;;;4993140;28;20034;-85
2021/07/21 07:11:50;;;;;;;7.38;3.60;;;22.70;99.90;;;;;;5023327;28;20104;-84
2021/07/21 07:14:18;;;;;;;5.82;3.25;;;23.30;99.90;;;;;;4982353;28;20053;-85
2021/07/21 07:16:44;;;;;;;4.78;3.88;;;23.70;99.90;;;;;;4983411;28;20030;-85
2021/07/21 07:19:10;;;;;;;4.80;3.28;;;24.20;95.30;;;;;;4991101;28;20040;-85
2021/07/21 07:21:36;;;;;;;5.22;3.38;;;24.20;98.00;;;;;;4978524;28;20053;-83
2021/07/21 07:24:02;;;;;;;3.80;3.40;;;24.30;95.10;;;;;;4978791;28;20590;-84
2021/07/21 07:26:28;;;;;;;7.10;3.47;;;24.40;92.10;;;;;;5012233;28;20094;-84
2021/07/21 07:28:55;;;;;;;5.43;3.38;;;24.30;90.00;;;;;;4995342;28;20037;-85
2021/07/21 07:31:21;;;;;;;4.80;3.05;;;24.40;90.80;;;;;;5037015;28;20487;-81
2021/07/21 07:33:47;;;;;;;6.03;3.35;;;24.60;91.50;;;;;;4985451;28;20072;-81
2021/07/21 07:36:13;;;;;;;4.82;3.25;;;25.00;91.10;;;;;;4995538;28;20034;-82
2021/07/21 07:38:39;;;;;;;4.43;2.70;;;25.60;89.60;;;;;;4988119;28;20125;-83
2021/07/21 07:41:05;;;;;;;4.63;2.92;;;26.00;87.50;;;;;;5012190;28;20644;-82
2021/07/21 07:43:31;;;;;;;7.07;2.92;;;26.30;82.70;;;;;;5017848;28;20065;-82
2021/07/21 07:45:58;;;;;;;4.88;2.85;;;26.30;78.40;;;;;;4994841;28;20068;-82
2021/07/21 07:48:25;;;;;;;5.25;3.20;;;26.20;76.20;;;;;;5011330;28;20044;-83
2021/07/21 07:50:52;;;;;;;5.20;2.90;;;26.00;77.30;;;;;;4996410;28;20046;-82
2021/07/21 07:53:18;;;;;;;5.80;3.35;;;25.70;74.20;;;;;;4993345;28;20037;-85
2021/07/21 07:55:44;;;;;;;5.10;3.33;;;25.20;77.30;;;;;;5011830;28;20034;-86
2021/07/21 07:58:19;;;;;;;5.70;2.95;;;24.90;81.60;;;;;;5009255;28;20125;-85
2021/07/21 08:00:46;;;;;;;6.65;3.38;;;24.40;76.70;;;;;;4996513;28;20026;-88
2021/07/21 08:03:15;;;;;;;2.88;2.55;;;24.10;82.20;;;;;;5016621;28;20030;-83
2021/07/21 08:05:42;;;;;;;5.68;3.10;;;24.10;81.60;;;;;;5009453;28;20026;-84
2021/07/21 08:08:15;;;;;;;3.85;2.80;;;24.00;78.30;;;;;;4996110;28;20092;-83
2021/07/21 08:10:43;;;;;;;4.13;3.13;;;23.70;78.90;;;;;;5020833;28;20076;-85
2021/07/21 08:13:09;;;;;;;3.80;2.70;;;23.50;83.30;;;;;;5002436;28;20038;-86
2021/07/21 08:15:52;;;;;;;4.80;2.60;;;23.70;84.00;;;;;;5014925;28;20041;-84
2021/07/21 08:18:32;;;;;;;6.20;3.55;;;24.20;82.00;;;;;;5012451;28;20552;-84
2021/07/21 08:21:05;;;;;;;5.05;3.42;;;24.50;80.70;;;;;;5026963;28;20022;-84
2021/07/21 08:23:34;;;;;;;3.88;2.65;;;24.60;77.10;;;;;;5008870;28;20382;-83
2021/07/21 08:26:00;;;;;;;6.22;3.22;;;24.60;79.40;;;;;;4992500;28;20433;-84
2021/07/21 08:28:26;;;;;;;6.13;3.60;;;24.70;77.10;;;;;;4983806;28;20126;-84
2021/07/21 08:30:52;;;;;;;4.40;3.20;;;24.80;76.40;;;;;;4975901;28;20034;-84
2021/07/21 08:33:18;;;;;;;7.45;3.33;;;24.60;72.40;;;;;;4994606;28;20496;-88
2021/07/21 08:35:44;;;;;;;6.40;2.67;;;24.70;78.10;;;;;;4988864;28;20036;-85
2021/07/21 08:38:11;;;;;;;3.38;2.90;;;25.10;74.50;;;;;;4985883;28;20050;-86
2021/07/21 08:40:39;;;;;;;5.05;3.30;;;25.20;77.00;;;;;;5008627;28;20400;-88
2021/07/21 08:43:08;;;;;;;5.72;3.50;;;25.30;68.10;;;;;;4986164;28;20053;-85
2021/07/21 08:45:34;;;;;;;7.32;3.15;;;25.30;73.10;;;;;;4970877;28;20041;-87
2021/07/21 08:48:01;;;;;;;6.80;3.55;;;25.50;72.10;;;;;;5006350;28;20480;-86
2021/07/21 08:50:27;;;;;;;4.75;3.13;;;25.70;74.60;;;;;;4990118;28;20073;-85
2021/07/21 08:52:56;;;;;;;8.00;3.60;;;26.00;72.50;;;;;;4985549;28;20397;-82
2021/07/21 08:55:23;;;;;;;4.82;3.55;;;26.20;71.40;;;;;;4989729;28;20563;-85
2021/07/21 08:57:49;;;;;;;4.95;3.53;;;26.00;65.90;;;;;;5022144;28;20045;-86
2021/07/21 09:00:16;;;;;;;4.57;3.47;;;25.40;64.90;;;;;;4990146;28;20046;-88
2021/07/21 09:02:44;;;;;;;4.70;3.60;;;24.70;66.50;;;;;;5004575;28;20030;-85
2021/07/21 09:05:12;;;;;;;5.65;3.85;;;24.00;69.80;;;;;;5006792;28;20547;-86
2021/07/21 09:07:39;;;;;;;4.55;3.35;;;23.40;73.90;;;;;;5005057;28;20073;-85
2021/07/21 09:10:11;;;;;;;7.85;3.92;;;23.00;76.50;;;;;;5001627;28;20069;-85
2021/07/21 09:12:42;;;;;;;4.30;3.38;;;22.70;77.40;;;;;;5000918;28;20413;-86
2021/07/21 09:15:11;;;;;;;5.25;3.80;;;22.40;79.40;;;;;;5005488;28;20045;-87
2021/07/21 09:17:37;;;;;;;4.57;3.53;;;22.30;81.70;;;;;;4985364;28;20479;-86
2021/07/21 09:20:14;;;;;;;7.25;3.75;;;22.30;85.30;;;;;;4989510;28;20094;-87
2021/07/21 09:22:42;;;;;;;5.47;3.92;;;22.30;84.20;;;;;;5005472;28;20038;-85
2021/07/21 09:25:09;;;;;;;5.35;3.30;;;22.20;86.00;;;;;;4983958;28;20034;-86
2021/07/21 09:27:35;;;;;;;5.78;4.40;;;22.10;86.40;;;;;;5000057;28;20034;-87
2021/07/21 09:30:00;;;;;;;7.55;4.00;;;22.00;90.20;;;;;;4983132;28;20031;-84
2021/07/21 09:32:26;;;;;;;6.55;4.20;;;22.00;82.20;;;;;;5012074;28;20113;-86
2021/07/21 09:34:52;;;;;;;5.90;4.10;;;22.00;90.10;;;;;;5000599;28;20657;-86
2021/07/21 09:37:20;;;;;;;7.45;4.05;;;22.10;88.30;;;;;;4987742;28;20022;-85
2021/07/21 09:39:50;;;;;;;8.68;4.28;;;22.20;78.10;;;;;;5002292;28;20401;-85
2021/07/21 09:42:17;;;;;;;5.55;4.05;;;22.20;80.50;;;;;;5002867;28;20465;-85
2021/07/21 09:44:45;;;;;;;6.43;4.00;;;22.30;88.80;;;;;;4989856;28;20117;-85
2021/07/21 09:47:20;;;;;;;7.85;3.83;;;22.40;89.70;;;;;;4991555;28;20559;-87
2021/07/21 09:49:46;;;;;;;4.22;3.45;;;22.50;84.90;;;;;;5018216;28;20035;-86
2021/07/21 09:52:18;;;;;;;6.80;3.78;;;22.60;84.10;;;;;;4991534;28;20037;-86
2021/07/21 09:55:02;;;;;;;4.63;3.28;;;22.50;79.10;;;;;;5001558;28;20026;-87
2021/07/21 09:57:28;;;;;;;8.15;3.60;;;22.50;79.80;;;;;;4993603;28;20121;-83
2021/07/21 09:59:57;;;;;;;6.45;3.92;;;22.40;79.60;;;;;;4989600;28;20441;-86
2021/07/21 10:02:25;;;;;;;5.70;3.55;;;22.30;79.80;;;;;;4973396;28;20084;-86
2021/07/21 10:04:52;;;;;;;5.70;3.88;;;22.30;79.30;;;;;;4972138;28;20023;-85
2021/07/21 10:07:50;;;;;;;5.03;3.45;;;22.30;78.60;;;;;;5005649;28;20034;-89
2021/07/21 10:10:22;;;;;;;5.50;3.72;;;22.30;82.00;;;;;;5010002;28;20033;-91
2021/07/21 10:12:59;;;;;;;7.20;3.78;;;22.30;82.30;;;;;;4979481;28;20038;-89
2021/07/21 10:15:25;;;;;;;5.65;3.88;;;22.30;79.30;;;;;;4992773;28;20499;-87
2021/07/21 10:18:07;;;;;;;5.05;3.45;;;22.30;77.60;;;;;;4975792;28;20144;-87
2021/07/21 10:20:34;;;;;;;6.88;3.58;;;22.30;78.00;;;;;;4983239;28;20026;-89
2021/07/21 10:23:00;;;;;;;7.35;4.60;;;22.20;81.80;;;;;;4991072;28;20033;-89
2021/07/21 10:25:26;;;;;;;7.30;3.15;;;22.10;82.60;;;;;;4993030;28;20034;-88
2021/07/21 10:27:54;;;;;;;4.97;3.25;;;22.00;83.90;;;;;;4993010;28;20500;-87
2021/07/21 10:30:20;;;;;;;4.65;3.45;;;22.00;84.10;;;;;;4989989;28;20044;-89
2021/07/21 10:32:48;;;;;;;4.20;3.50;;;22.00;84.60;;;;;;4981669;28;20041;-84
2021/07/21 10:35:14;;;;;;;4.10;3.33;;;22.10;80.30;;;;;;4974109;28;20121;-86
2021/07/21 10:37:40;;;;;;;4.38;3.33;;;22.00;76.90;;;;;;5009850;28;20056;-89
2021/07/21 10:40:07;;;;;;;5.32;3.28;;;22.00;79.20;;;;;;4984200;28;20057;-84
2021/07/21 10:42:33;;;;;;;5.00;3.63;;;21.90;77.50;;;;;;4993808;28;20033;-84
2021/07/21 10:45:17;;;;;;;6.07;3.83;;;21.90;74.60;;;;;;5005789;28;20163;-84
2021/07/21 10:47:45;;;;;;;5.80;3.53;;;21.80;79.60;;;;;;5007443;28;20022;-83
2021/07/21 10:50:25;;;;;;;3.88;3.08;;;21.70;83.50;;;;;;4988656;28;20050;-87
2021/07/21 10:59:11;;;;;;;5.05;3.33;;;21.60;82.70;;;;;;5004256;28;20092;-85
2021/07/21 11:01:42;;;;;;;8.35;4.47;;;21.50;80.10;;;;;;5005954;28;20040;-85
2021/07/21 11:04:08;;;;;;;5.57;3.45;;;21.40;78.50;;;;;;5024631;28;20429;-84
2021/07/21 11:06:45;;;;;;;4.65;3.33;;;21.50;83.80;;;;;;5008921;28;20114;-84
2021/07/21 11:09:32;;;;;;;3.90;3.03;;;21.60;74.20;;;;;;5013003;28;20034;-84
2021/07/21 11:11:58;;;;;;;4.07;3.08;;;21.60;74.40;;;;;;5015530;28;20065;-88
2021/07/21 11:14:29;;;;;;;4.68;3.35;;;21.60;76.90;;;;;;4997638;28;20099;-83
2021/07/21 11:17:07;;;;;;;4.85;3.28;;;21.80;79.20;;;;;;5041356;23;20037;-79
2021/07/21 11:19:47;;;;;;;3.30;3.00;;;22.00;81.40;;;;;;5025658;28;20525;-79
2021/07/21 11:22:19;;;;;;;4.60;2.90;;;22.20;78.80;;;;;;4996353;28;20046;-79
2021/07/21 11:25:16;;;;;;;4.28;2.95;;;22.50;81.10;;;;;;5028525;28;20084;-80
2021/07/21 11:27:43;;;;;;;4.45;2.67;;;22.70;80.10;;;;;;5026625;28;20089;-80
2021/07/21 11:30:34;;;;;;;4.50;2.97;;;23.00;78.20;;;;;;5037828;28;20753;-82
2021/07/21 11:33:46;;;;;;;6.60;3.30;;;23.10;77.40;;;;;;5028609;28;20034;-79
2021/07/21 11:36:32;;;;;;;4.13;2.92;;;23.30;76.90;;;;;;5006810;28;20375;-79
2021/07/21 11:38:58;;;;;;;5.10;3.13;;;23.30;74.60;;;;;;5039428;28;20126;-79
2021/07/21 11:41:50;;;;;;;4.15;3.13;;;23.20;80.60;;;;;;5025153;28;20083;-79
2021/07/21 11:44:30;;;;;;;5.18;2.83;;;23.10;72.40;;;;;;5025078;28;20089;-80
2021/07/21 11:46:58;;;;;;;5.40;3.10;;;23.10;71.40;;;;;;5025681;28;20579;-79
2021/07/21 11:49:26;;;;;;;4.07;3.10;;;23.00;74.10;;;;;;5006757;28;20033;-78
2021/07/21 11:52:02;;;;;;;5.57;3.78;;;23.00;76.00;;;;;;5021301;28;20121;-81
2021/07/21 11:54:35;;;;;;;4.47;3.05;;;22.90;74.90;;;;;;5025402;28;20034;-79
2021/07/21 11:57:04;;;;;;;4.97;3.05;;;22.90;72.40;;;;;;5025225;28;20128;-78
2021/07/21 11:59:33;;;;;;;3.85;3.20;;;22.90;73.80;;;;;;5027282;28;20036;-79
2021/07/21 12:02:09;;;;;;;3.92;3.10;;;23.10;71.70;;;;;;5029332;28;20383;-79
2021/07/21 12:04:37;;;;;;;3.58;2.92;;;23.30;76.80;;;;;;5034739;28;20021;-80
2021/07/21 12:07:09;;;;;;;5.03;3.10;;;23.60;69.30;;;;;;5028918;28;20030;-81
2021/07/21 12:09:51;;;;;;;3.80;2.85;;;23.50;67.80;;;;;;5033122;28;20073;-81
2021/07/21 12:12:19;;;;;;;4.00;2.50;;;23.50;71.00;;;;;;5018056;28;20041;-81
2021/07/21 12:14:54;;;;;;;5.43;2.65;;;23.80;71.20;;;;;;5017283;28;20030;-80
2021/07/21 12:17:22;;;;;;;3.17;2.70;;;24.10;68.00;;;;;;5016157;28;20093;-80
2021/07/21 12:19:56;;;;;;;3.63;2.90;;;24.20;72.30;;;;;;5025531;28;20469;-79
2021/07/21 12:22:28;;;;;;;4.50;3.40;;;24.60;73.50;;;;;;5004780;28;20133;-81
2021/07/21 12:24:57;;;;;;;7.03;3.28;;;25.00;66.50;;;;;;5021721;28;20101;-80
2021/07/21 12:27:37;;;;;;;4.72;3.40;;;25.50;62.40;;;;;;5013945;28;20030;-79
2021/07/21 12:30:13;;;;;;;4.90;3.10;;;25.70;65.20;;;;;;5026857;28;20029;-78
2021/07/21 12:32:40;;;;;;;3.10;2.75;;;26.00;66.30;;;;;;5016386;28;20053;-79
2021/07/21 12:35:07;;;;;;;3.90;3.33;;;26.30;67.60;;;;;;5031744;28;20022;-80
2021/07/21 12:37:39;;;;;;;5.72;3.10;;;26.30;61.30;;;;;;5010813;28;20399;-81
2021/07/21 12:40:24;;;;;;;3.00;2.70;;;26.20;59.20;;;;;;5014858;28;20021;-80
2021/07/21 12:42:52;;;;;;;3.40;2.88;;;26.20;66.40;;;;;;5028658;28;20442;-81
2021/07/21 12:45:20;;;;;;;5.63;2.88;;;26.00;57.20;;;;;;5025048;28;20034;-79
2021/07/21 12:48:10;;;;;;;4.03;2.95;;;26.00;59.30;;;;;;5030072;28;20087;-81
2021/07/21 12:50:40;;;;;;;6.68;2.97;;;26.10;64.90;;;;;;5014207;28;20029;-79
2021/07/21 12:53:16;;;;;;;5.00;2.53;;;26.30;65.40;;;;;;5031068;28;20096;-79
2021/07/21 12:55:49;;;;;;;3.65;2.80;;;26.60;60.70;;;;;;5029874;28;20029;-79
2021/07/21 12:58:17;;;;;;;3.05;2.70;;;26.90;57.10;;;;;;5030031;28;20095;-79
2021/07/21 13:00:49;;;;;;;3.83;3.25;;;26.90;58.30;;;;;;5030304;28;20040;-80
2021/07/21 13:03:19;;;;;;;3.92;2.70;;;26.90;56.30;;;;;;5027137;28;20033;-80
2021/07/21 13:05:58;;;;;;;4.00;2.92;;;27.00;58.10;;;;;;5013649;28;20022;-79
2021/07/21 13:08:33;;;;;;;3.83;2.60;;;27.00;59.90;;;;;;5033205;28;20025;-79
2021/07/21 13:11:12;;;;;;;4.35;2.90;;;26.60;59.00;;;;;;5038163;28;20021;-79
2021/07/21 13:13:50;;;;;;;5.57;3.35;;;26.40;55.00;;;;;;5009833;28;20043;-80
2021/07/21 13:16:28;;;;;;;4.60;2.72;;;26.30;54.90;;;;;;5016157;28;20029;-80
2021/07/21 13:19:01;;;;;;;5.25;3.13;;;26.20;56.50;;;;;;5024220;28;20044;-79
2021/07/21 13:21:37;;;;;;;4.07;2.80;;;25.90;57.20;;;;;;5035805;28;20033;-80
2021/07/21 13:24:05;;;;;;;4.35;2.78;;;25.70;60.20;;;;;;5033726;28;20081;-79